createdAt,value
2018-12-30T00:01:03.020Z,72.80
2018-12-30T00:03:32.131Z,72.50
2018-12-30T00:06:01.462Z,72.80
2018-12-30T00:08:30.849Z,72.00
2018-12-30T00:11:00.079Z,72.60
2018-12-30T00:13:29.506Z,70.10
2018-12-30T00:15:58.567Z,71.10
2018-12-30T00:18:27.611Z,71.70
2018-12-30T00:20:56.647Z,71.70
2018-12-30T00:23:25.606Z,72.00
2018-12-30T00:25:55.273Z,72.70
2018-12-30T00:28:24.234Z,72.80
2018-12-30T00:30:53.359Z,72.80
2018-12-30T00:33:22.599Z,72.50
2018-12-30T00:35:51.741Z,72.60
2018-12-30T00:38:20.977Z,72.60
2018-12-30T00:40:50.130Z,72.70
2018-12-30T00:43:19.156Z,73.00
2018-12-30T00:46:07.386Z,72.90
2018-12-30T00:48:36.445Z,72.30
2018-12-30T00:51:05.463Z,72.60
2018-12-30T00:53:34.388Z,71.70
2018-12-30T00:56:03.483Z,71.80
2018-12-30T00:58:32.774Z,71.00
2018-12-30T01:01:01.822Z,71.40
2018-12-30T01:03:30.859Z,70.10
2018-12-30T01:05:59.971Z,70.30
2018-12-30T01:08:28.958Z,69.90
2018-12-30T01:10:57.907Z,70.80
2018-12-30T01:13:26.942Z,70.30
2018-12-30T01:15:56.002Z,71.50
2018-12-30T01:18:25.109Z,71.30
2018-12-30T01:20:54.213Z,71.60
2018-12-30T01:23:23.234Z,72.10
2018-12-30T01:25:52.393Z,72.30
2018-12-30T01:28:21.356Z,72.20
2018-12-30T01:30:50.489Z,72.20
2018-12-30T01:33:19.613Z,72.30
2018-12-30T01:35:48.764Z,72.00
2018-12-30T01:38:17.745Z,70.70
2018-12-30T01:40:46.781Z,70.80
2018-12-30T01:43:15.733Z,71.60
2018-12-30T01:45:45.726Z,71.30
2018-12-30T01:48:15.151Z,71.70
2018-12-30T01:50:44.166Z,71.00
2018-12-30T01:53:13.242Z,70.10
2018-12-30T01:55:42.225Z,70.00
2018-12-30T01:58:11.247Z,70.40
2018-12-30T02:00:40.402Z,70.90
2018-12-30T02:03:09.503Z,70.80
2018-12-30T02:05:38.814Z,70.50
2018-12-30T02:08:07.874Z,70.50
2018-12-30T02:10:36.839Z,70.10
2018-12-30T02:13:05.793Z,70.60
2018-12-30T02:15:34.790Z,70.60
2018-12-30T02:18:04.019Z,70.40
2018-12-30T02:20:33.050Z,70.70
2018-12-30T02:23:02.962Z,71.10
2018-12-30T02:25:31.854Z,72.40
2018-12-30T02:28:00.818Z,71.80
2018-12-30T02:30:29.801Z,71.60
2018-12-30T02:32:58.759Z,71.70
2018-12-30T02:35:27.786Z,71.80
2018-12-30T02:37:56.800Z,71.70
2018-12-30T02:40:25.846Z,71.40
2018-12-30T02:42:54.797Z,71.40
2018-12-30T02:45:24.011Z,71.60
2018-12-30T02:47:53.127Z,71.50
2018-12-30T02:50:22.216Z,71.50
2018-12-30T02:52:51.274Z,71.30
2018-12-30T02:55:20.221Z,71.50
2018-12-30T02:57:49.103Z,71.50
2018-12-30T03:00:18.427Z,71.50
2018-12-30T03:02:47.466Z,71.90
2018-12-30T03:05:16.498Z,71.60
2018-12-30T03:07:45.490Z,71.70
2018-12-30T03:10:14.443Z,71.80
2018-12-30T03:12:43.422Z,71.80
2018-12-30T03:15:12.728Z,71.70
2018-12-30T03:17:42.129Z,71.60
2018-12-30T03:20:11.186Z,71.60
2018-12-30T03:22:40.191Z,71.60
2018-12-30T03:25:09.213Z,71.20
2018-12-30T03:27:38.225Z,71.50
2018-12-30T03:30:07.759Z,71.50
2018-12-30T03:32:36.784Z,71.50
2018-12-30T03:35:05.930Z,71.50
2018-12-30T03:37:34.916Z,71.70
2018-12-30T03:40:04.749Z,71.80
2018-12-30T03:42:34.676Z,71.60
2018-12-30T03:45:03.995Z,71.60
2018-12-30T03:47:33.124Z,71.60
2018-12-30T03:50:02.403Z,71.60
2018-12-30T03:52:31.503Z,71.60
2018-12-30T03:55:00.527Z,71.60
2018-12-30T03:57:31.955Z,71.70
2018-12-30T04:00:01.354Z,71.50
2018-12-30T04:02:30.334Z,71.70
2018-12-30T04:04:59.307Z,71.60
2018-12-30T04:07:28.291Z,71.80
2018-12-30T04:09:57.323Z,71.80
2018-12-30T04:12:26.189Z,71.90
2018-12-30T04:14:55.331Z,72.00
2018-12-30T04:17:24.223Z,72.00
2018-12-30T04:19:53.258Z,72.10
2018-12-30T04:22:22.240Z,72.10
2018-12-30T04:24:51.288Z,72.20
2018-12-30T04:27:22.603Z,72.10
2018-12-30T04:29:51.564Z,72.10
2018-12-30T04:32:20.534Z,72.00
2018-12-30T04:34:49.734Z,73.10
2018-12-30T04:37:18.718Z,72.30
2018-12-30T04:39:47.682Z,72.40
2018-12-30T04:42:16.920Z,72.40
2018-12-30T04:44:45.977Z,72.40
2018-12-30T04:47:14.943Z,72.50
2018-12-30T04:49:43.968Z,72.50
2018-12-30T04:52:13.089Z,72.70
2018-12-30T04:54:42.142Z,72.80
2018-12-30T04:57:11.582Z,72.60
2018-12-30T04:59:40.882Z,72.60
2018-12-30T05:02:09.772Z,72.70
2018-12-30T05:04:38.657Z,72.60
2018-12-30T05:07:07.891Z,72.40
2018-12-30T05:09:36.934Z,72.40
2018-12-30T05:12:05.967Z,72.50
2018-12-30T05:14:34.988Z,72.70
2018-12-30T05:17:04.274Z,72.90
2018-12-30T05:19:33.324Z,72.80
2018-12-30T05:22:02.737Z,72.70
2018-12-30T05:24:32.286Z,72.70
2018-12-30T05:27:01.251Z,72.60
2018-12-30T05:29:30.550Z,73.50
2018-12-30T05:31:59.515Z,72.70
2018-12-30T05:34:28.840Z,72.80
2018-12-30T05:36:57.911Z,72.90
2018-12-30T05:39:27.934Z,72.90
2018-12-30T05:41:57.472Z,73.00
2018-12-30T05:44:26.904Z,73.40
2018-12-30T05:46:55.792Z,73.40
2018-12-30T05:49:25.262Z,73.20
2018-12-30T05:51:54.314Z,73.20
2018-12-30T05:54:23.349Z,73.10
2018-12-30T05:56:52.396Z,73.00
2018-12-30T05:59:21.748Z,73.00
2018-12-30T06:01:50.792Z,73.00
2018-12-30T06:04:19.841Z,72.90
2018-12-30T06:06:48.756Z,73.00
2018-12-30T06:09:17.746Z,72.90
2018-12-30T06:11:46.714Z,73.40
2018-12-30T06:14:15.783Z,73.00
2018-12-30T06:16:44.815Z,72.80
2018-12-30T06:19:13.782Z,72.90
2018-12-30T06:21:42.700Z,72.70
2018-12-30T06:24:11.606Z,72.70
2018-12-30T06:26:40.595Z,72.70
2018-12-30T06:29:09.656Z,73.10
2018-12-30T06:31:38.948Z,72.70
2018-12-30T06:34:07.918Z,72.60
2018-12-30T06:36:36.910Z,72.50
2018-12-30T06:39:07.119Z,72.60
2018-12-30T06:41:36.166Z,72.60
2018-12-30T06:44:05.159Z,72.60
2018-12-30T06:46:34.142Z,72.50
2018-12-30T06:49:03.018Z,72.50
2018-12-30T06:51:32.007Z,72.70
2018-12-30T06:54:01.015Z,72.60
2018-12-30T06:56:30.058Z,72.60
2018-12-30T06:58:59.043Z,72.60
2018-12-30T07:01:27.935Z,73.30
2018-12-30T07:03:56.822Z,72.70
2018-12-30T07:06:25.833Z,72.90
2018-12-30T07:08:54.733Z,72.50
2018-12-30T07:11:23.714Z,72.50
2018-12-30T07:13:52.633Z,72.60
2018-12-30T07:16:22.483Z,72.50
2018-12-30T07:18:51.396Z,72.40
2018-12-30T07:21:20.386Z,72.50
2018-12-30T07:23:49.397Z,73.20
2018-12-30T07:26:37.538Z,72.40
2018-12-30T07:29:06.614Z,72.50
2018-12-30T07:31:35.614Z,72.50
2018-12-30T07:34:04.773Z,72.60
2018-12-30T07:36:33.753Z,72.60
2018-12-30T07:39:02.789Z,72.70
2018-12-30T07:41:31.932Z,72.60
2018-12-30T07:44:00.932Z,72.70
2018-12-30T07:46:29.909Z,72.70
2018-12-30T07:48:59.320Z,72.90
2018-12-30T07:51:28.358Z,72.90
2018-12-30T07:53:57.241Z,72.80
2018-12-30T07:56:26.278Z,73.00
2018-12-30T07:59:14.413Z,72.80
2018-12-30T08:01:43.466Z,73.00
2018-12-30T08:04:12.494Z,73.00
2018-12-30T08:06:41.527Z,72.80
2018-12-30T08:09:10.605Z,72.90
2018-12-30T08:11:39.659Z,72.90
2018-12-30T08:14:08.602Z,73.00
2018-12-30T08:16:37.602Z,73.00
2018-12-30T08:19:06.638Z,73.10
2018-12-30T08:21:35.685Z,73.20
2018-12-30T08:24:04.798Z,73.10
2018-12-30T08:26:33.844Z,73.10
2018-12-30T08:29:02.824Z,73.10
2018-12-30T08:31:31.946Z,73.20
2018-12-30T08:34:03.003Z,73.20
2018-12-30T08:36:32.083Z,73.20
2018-12-30T08:39:01.151Z,73.10
2018-12-30T08:41:30.661Z,74.10
2018-12-30T08:43:59.658Z,73.20
2018-12-30T08:46:28.754Z,73.20
2018-12-30T08:48:58.367Z,73.30
2018-12-30T08:51:27.354Z,73.40
2018-12-30T08:53:56.273Z,73.30
2018-12-30T08:56:25.398Z,73.40
2018-12-30T08:58:54.412Z,73.50
2018-12-30T09:01:28.397Z,73.40
2018-12-30T09:03:55.225Z,73.40
2018-12-30T09:06:24.515Z,73.40
2018-12-30T09:08:53.582Z,73.30
2018-12-30T09:11:23.102Z,73.30
2018-12-30T09:13:52.203Z,73.30
2018-12-30T09:16:21.267Z,73.30
2018-12-30T09:19:09.503Z,73.20
2018-12-30T09:21:38.479Z,73.20
2018-12-30T09:24:07.798Z,73.30
2018-12-30T09:26:36.705Z,73.50
2018-12-30T09:29:05.750Z,73.40
2018-12-30T09:31:35.420Z,73.50
2018-12-30T09:34:04.570Z,73.70
2018-12-30T09:36:33.645Z,73.60
2018-12-30T09:39:21.812Z,73.90
2018-12-30T09:41:51.231Z,74.00
2018-12-30T09:44:20.186Z,74.30
2018-12-30T09:46:50.477Z,74.50
2018-12-30T09:49:19.539Z,74.40
2018-12-30T09:51:48.486Z,74.60
2018-12-30T09:54:17.786Z,74.70
2018-12-30T09:56:46.896Z,75.00
2018-12-30T09:59:15.918Z,75.00
2018-12-30T10:01:44.960Z,75.10
2018-12-30T10:04:14.028Z,75.10
2018-12-30T10:06:43.043Z,75.00
2018-12-30T10:09:12.081Z,75.20
2018-12-30T10:11:40.982Z,75.20
2018-12-30T10:14:10.041Z,75.20
2018-12-30T10:16:39.067Z,75.20
2018-12-30T10:19:08.379Z,75.20
2018-12-30T10:21:37.306Z,75.10
2018-12-30T10:24:06.171Z,75.20
2018-12-30T10:26:35.251Z,75.10
2018-12-30T10:29:04.459Z,75.10
2018-12-30T10:31:33.370Z,75.10
2018-12-30T10:34:02.448Z,74.80
2018-12-30T10:36:31.481Z,74.80
2018-12-30T10:39:00.430Z,74.80
2018-12-30T10:41:29.791Z,74.80
2018-12-30T10:43:58.748Z,74.50
2018-12-30T10:46:27.828Z,74.90
2018-12-30T10:48:56.882Z,74.60
2018-12-30T10:51:25.916Z,74.90
2018-12-30T10:54:00.664Z,74.80
2018-12-30T10:56:25.590Z,74.90
2018-12-30T10:58:55.064Z,74.80
2018-12-30T11:01:24.102Z,75.00
2018-12-30T11:03:53.170Z,74.70
2018-12-30T11:06:22.291Z,74.90
2018-12-30T11:08:51.321Z,74.70
2018-12-30T11:11:20.735Z,75.10
2018-12-30T11:13:49.737Z,74.90
2018-12-30T11:16:18.815Z,75.10
2018-12-30T11:19:06.996Z,74.70
2018-12-30T11:21:36.045Z,75.10
2018-12-30T11:24:08.721Z,75.40
2018-12-30T11:26:35.890Z,75.10
2018-12-30T11:29:05.188Z,75.20
2018-12-30T11:31:36.008Z,75.40
2018-12-30T11:34:05.345Z,75.10
2018-12-30T11:36:34.445Z,74.90
2018-12-30T11:39:04.797Z,74.80
2018-12-30T11:41:33.866Z,74.80
2018-12-30T11:44:03.018Z,75.00
2018-12-30T11:46:32.334Z,74.70
2018-12-30T11:49:01.693Z,75.10
2018-12-30T11:51:30.735Z,75.10
2018-12-30T11:54:00.074Z,75.00
2018-12-30T11:56:29.246Z,74.80
2018-12-30T11:58:58.277Z,74.90
2018-12-30T12:01:27.287Z,74.80
2018-12-30T12:03:56.353Z,75.10
2018-12-30T12:06:25.500Z,75.40
2018-12-30T12:08:54.456Z,75.10
2018-12-30T12:11:23.904Z,75.30
2018-12-30T12:13:52.954Z,75.20
2018-12-30T12:16:22.040Z,75.30
2018-12-30T12:18:51.522Z,75.00
2018-12-30T12:21:20.565Z,75.30
2018-12-30T12:23:49.622Z,75.20
2018-12-30T12:26:18.729Z,75.00
2018-12-30T12:28:48.170Z,74.80
2018-12-30T12:31:17.100Z,74.40
2018-12-30T12:33:46.058Z,75.00
2018-12-30T12:36:14.934Z,75.00
2018-12-30T12:38:43.995Z,74.70
2018-12-30T12:41:12.958Z,74.60
2018-12-30T12:43:41.948Z,74.60
2018-12-30T12:46:10.962Z,74.60
2018-12-30T12:48:40.042Z,74.40
2018-12-30T12:51:08.950Z,74.70
2018-12-30T12:53:37.958Z,74.80
2018-12-30T12:56:07.006Z,74.90
2018-12-30T12:58:36.087Z,75.00
2018-12-30T13:01:05.185Z,75.10
2018-12-30T13:03:34.203Z,75.20
2018-12-30T13:06:03.194Z,75.60
2018-12-30T13:08:33.164Z,75.60
2018-12-30T13:11:02.391Z,75.70
2018-12-30T13:13:31.392Z,76.20
2018-12-30T13:16:03.531Z,76.20
2018-12-30T13:18:31.184Z,76.10
2018-12-30T13:21:00.246Z,76.20
2018-12-30T13:23:29.301Z,76.10
2018-12-30T13:25:58.361Z,75.80
2018-12-30T13:28:27.626Z,75.90
2018-12-30T13:30:56.690Z,76.30
2018-12-30T13:33:25.734Z,75.90
2018-12-30T13:35:55.765Z,76.50
2018-12-30T13:38:28.452Z,76.40
2018-12-30T13:40:56.798Z,77.30
2018-12-30T13:43:25.977Z,77.00
2018-12-30T13:45:55.870Z,77.00
2018-12-30T13:48:24.841Z,77.60
2018-12-30T13:50:53.879Z,77.70
2018-12-30T13:53:23.194Z,77.60
2018-12-30T13:55:52.377Z,77.80
2018-12-30T13:58:22.225Z,77.60
2018-12-30T14:00:51.270Z,78.00
2018-12-30T14:03:20.294Z,77.90
2018-12-30T14:05:49.290Z,78.00
2018-12-30T14:08:37.448Z,78.10
2018-12-30T14:11:06.515Z,78.10
2018-12-30T14:13:35.610Z,78.40
2018-12-30T14:16:04.698Z,79.00
2018-12-30T14:18:33.670Z,78.80
2018-12-30T14:21:02.616Z,78.20
2018-12-30T14:23:31.594Z,78.70
2018-12-30T14:26:00.561Z,78.40
2018-12-30T14:28:29.611Z,79.40
2018-12-30T14:30:58.688Z,78.80
2018-12-30T14:33:27.874Z,78.30
2018-12-30T14:35:56.874Z,79.30
2018-12-30T14:38:25.765Z,79.10
2018-12-30T14:40:54.731Z,79.10
2018-12-30T14:43:23.713Z,79.90
2018-12-30T14:45:52.677Z,79.70
2018-12-30T14:48:21.737Z,79.60
2018-12-30T14:50:50.792Z,80.10
2018-12-30T14:53:19.900Z,80.20
2018-12-30T14:55:48.858Z,80.30
2018-12-30T14:58:17.885Z,80.00
2018-12-30T15:00:47.718Z,80.30
2018-12-30T15:03:16.918Z,80.00
2018-12-30T15:05:45.894Z,79.90
2018-12-30T15:08:15.025Z,79.60
2018-12-30T15:10:44.017Z,80.80
2018-12-30T15:13:13.074Z,81.20
2018-12-30T15:15:42.481Z,83.10
2018-12-30T15:18:11.478Z,82.20
2018-12-30T15:20:40.510Z,81.70
2018-12-30T15:23:09.590Z,81.40
2018-12-30T15:25:39.332Z,83.00
2018-12-30T15:28:08.472Z,83.20
2018-12-30T15:30:37.714Z,83.10
2018-12-30T15:33:07.162Z,83.50
2018-12-30T15:35:36.145Z,82.60
2018-12-30T15:38:05.199Z,83.20
2018-12-30T15:40:34.312Z,83.20
2018-12-30T15:43:03.346Z,83.80
2018-12-30T15:45:32.478Z,83.70
2018-12-30T15:48:01.848Z,83.70
2018-12-30T15:50:30.837Z,84.10
2018-12-30T15:52:59.870Z,83.70
2018-12-30T15:55:31.303Z,84.40
2018-12-30T15:58:00.292Z,84.00
2018-12-30T16:00:29.366Z,84.40
2018-12-30T16:02:58.611Z,84.50
2018-12-30T16:05:27.631Z,83.70
2018-12-30T16:07:56.606Z,84.10
2018-12-30T16:10:25.765Z,84.20
2018-12-30T16:12:54.838Z,84.60
2018-12-30T16:15:23.986Z,84.00
2018-12-30T16:17:54.164Z,83.80
2018-12-30T16:20:23.213Z,83.60
2018-12-30T16:22:52.109Z,83.80
2018-12-30T16:25:27.093Z,83.30
2018-12-30T16:27:52.837Z,83.60
2018-12-30T16:30:21.877Z,84.10
2018-12-30T16:32:50.992Z,83.00
2018-12-30T16:35:20.048Z,83.60
2018-12-30T16:37:49.536Z,83.30
2018-12-30T16:40:19.137Z,83.60
2018-12-30T16:42:48.189Z,83.60
2018-12-30T16:45:17.226Z,83.80
2018-12-30T16:47:46.625Z,83.50
2018-12-30T16:50:15.811Z,84.00
2018-12-30T16:52:44.940Z,83.40
2018-12-30T16:55:14.075Z,83.40
2018-12-30T16:57:43.097Z,83.30
2018-12-30T17:00:12.118Z,83.70
2018-12-30T17:02:41.110Z,83.80
2018-12-30T17:05:10.673Z,83.80
2018-12-30T17:07:39.752Z,83.70
2018-12-30T17:10:09.973Z,84.20
2018-12-30T17:12:39.910Z,83.60
2018-12-30T17:15:09.715Z,83.90
2018-12-30T17:17:38.789Z,83.90
2018-12-30T17:20:07.866Z,84.20
2018-12-30T17:22:36.942Z,83.80
2018-12-30T17:25:07.061Z,83.50
2018-12-30T17:27:35.971Z,84.40
2018-12-30T17:30:08.122Z,83.80
2018-12-30T17:32:37.193Z,83.70
2018-12-30T17:35:06.302Z,83.80
2018-12-30T17:37:35.336Z,83.60
2018-12-30T17:40:04.609Z,84.00
2018-12-30T17:42:33.593Z,84.40
2018-12-30T17:45:02.559Z,84.00
2018-12-30T17:47:31.606Z,84.10
2018-12-30T17:50:02.358Z,84.10
2018-12-30T17:52:31.549Z,84.10
2018-12-30T17:55:02.222Z,83.90
2018-12-30T17:57:31.306Z,84.10
2018-12-30T18:00:00.346Z,83.80
2018-12-30T18:02:29.421Z,84.10
2018-12-30T18:04:58.454Z,84.40
2018-12-30T18:07:27.493Z,84.30
2018-12-30T18:09:56.569Z,84.10
2018-12-30T18:12:25.598Z,84.10
2018-12-30T18:14:54.587Z,84.20
2018-12-30T18:17:23.577Z,84.50
2018-12-30T18:19:57.940Z,84.40
2018-12-30T18:22:27.660Z,84.20
2018-12-30T18:24:59.634Z,84.40
2018-12-30T18:27:28.802Z,84.80
2018-12-30T18:29:57.885Z,84.10
2018-12-30T18:32:26.861Z,84.10
2018-12-30T18:34:55.952Z,83.70
2018-12-30T18:37:25.058Z,83.70
2018-12-30T18:39:54.075Z,83.40
2018-12-30T18:42:23.143Z,83.40
2018-12-30T18:44:52.279Z,83.10
2018-12-30T18:47:21.254Z,83.40
2018-12-30T18:49:50.732Z,83.30
2018-12-30T18:52:19.769Z,83.50
2018-12-30T18:54:48.894Z,83.40
2018-12-30T18:57:18.022Z,83.40
2018-12-30T18:59:47.006Z,83.60
2018-12-30T19:02:16.065Z,83.80
2018-12-30T19:04:45.437Z,83.70
2018-12-30T19:07:14.499Z,83.70
2018-12-30T19:09:43.466Z,83.80
2018-12-30T19:12:12.425Z,83.60
2018-12-30T19:14:41.479Z,83.40
2018-12-30T19:17:10.599Z,83.60
2018-12-30T19:19:39.463Z,83.10
2018-12-30T19:22:08.482Z,83.40
2018-12-30T19:24:38.226Z,83.40
2018-12-30T19:27:07.194Z,83.40
2018-12-30T19:29:36.214Z,83.70
2018-12-30T19:32:05.318Z,83.60
2018-12-30T19:34:34.589Z,83.90
2018-12-30T19:37:03.676Z,83.90
2018-12-30T19:39:32.746Z,83.80
2018-12-30T19:42:01.655Z,83.70
2018-12-30T19:44:31.362Z,83.70
2018-12-30T19:47:00.451Z,83.60
2018-12-30T19:49:29.750Z,83.40
2018-12-30T19:51:58.916Z,83.60
2018-12-30T19:54:28.057Z,83.60
2018-12-30T19:56:58.546Z,83.70
2018-12-30T19:59:27.602Z,83.70
2018-12-30T20:01:57.317Z,84.10
2018-12-30T20:04:26.600Z,83.80
2018-12-30T20:06:56.013Z,83.80
2018-12-30T20:09:25.742Z,84.10
2018-12-30T20:11:54.778Z,83.90
2018-12-30T20:14:24.114Z,84.10
2018-12-30T20:16:53.010Z,84.60
2018-12-30T20:19:21.996Z,84.30
2018-12-30T20:21:51.056Z,84.40
2018-12-30T20:24:20.098Z,84.20
2018-12-30T20:26:49.096Z,84.30
2018-12-30T20:29:18.120Z,84.90
2018-12-30T20:31:47.173Z,84.50
2018-12-30T20:34:16.227Z,84.60
2018-12-30T20:36:45.225Z,84.80
2018-12-30T20:39:14.213Z,84.90
2018-12-30T20:41:43.474Z,84.50
2018-12-30T20:44:12.850Z,84.60
2018-12-30T20:46:41.757Z,85.30
2018-12-30T20:49:10.750Z,85.00
2018-12-30T20:51:39.661Z,85.40
2018-12-30T20:54:08.722Z,85.30
2018-12-30T20:56:38.078Z,85.20
2018-12-30T20:59:07.426Z,85.20
2018-12-30T21:01:36.391Z,85.00
2018-12-30T21:04:05.462Z,85.40
2018-12-30T21:06:34.598Z,85.60
2018-12-30T21:09:04.777Z,85.30
2018-12-30T21:11:33.776Z,85.50
2018-12-30T21:14:03.130Z,85.60
2018-12-30T21:16:32.619Z,85.80
2018-12-30T21:19:01.670Z,85.40
2018-12-30T21:21:30.582Z,85.60
2018-12-30T21:24:01.471Z,85.90
2018-12-30T21:26:30.359Z,85.70
2018-12-30T21:28:59.446Z,85.10
2018-12-30T21:31:28.542Z,85.30
2018-12-30T21:33:57.590Z,85.30
2018-12-30T21:36:26.682Z,85.60
2018-12-30T21:38:55.634Z,85.60
2018-12-30T21:41:24.673Z,85.20
2018-12-30T21:43:53.720Z,85.20
2018-12-30T21:46:22.786Z,85.40
2018-12-30T21:48:51.729Z,85.40
2018-12-30T21:51:21.710Z,85.20
2018-12-30T21:53:50.709Z,85.40
2018-12-30T21:56:19.756Z,85.40
2018-12-30T21:58:49.098Z,85.40
2018-12-30T22:01:18.195Z,85.30
2018-12-30T22:03:47.470Z,85.30
2018-12-30T22:06:16.461Z,85.30
2018-12-30T22:08:45.431Z,85.40
2018-12-30T22:11:14.463Z,85.60
2018-12-30T22:13:43.445Z,86.00
2018-12-30T22:16:12.462Z,85.60
2018-12-30T22:18:41.426Z,85.50
2018-12-30T22:21:10.538Z,85.20
2018-12-30T22:23:39.464Z,85.90
2018-12-30T22:26:08.459Z,85.50
2018-12-30T22:28:37.480Z,85.30
2018-12-30T22:31:06.443Z,85.40
2018-12-30T22:33:35.482Z,85.80
2018-12-30T22:36:04.622Z,85.90
2018-12-30T22:38:33.674Z,85.80
2018-12-30T22:41:03.016Z,85.70
2018-12-30T22:43:32.317Z,85.40
2018-12-30T22:46:01.386Z,85.00
2018-12-30T22:48:30.411Z,85.10
2018-12-30T22:50:59.431Z,85.30
2018-12-30T22:53:28.561Z,85.10
2018-12-30T22:55:58.106Z,85.00
2018-12-30T22:58:27.169Z,84.70
2018-12-30T23:00:59.659Z,84.90
2018-12-30T23:03:28.843Z,84.50
2018-12-30T23:05:57.835Z,84.50
2018-12-30T23:08:26.891Z,84.60
2018-12-30T23:10:56.311Z,84.50
2018-12-30T23:13:27.919Z,85.10
2018-12-30T23:15:56.961Z,85.00
2018-12-30T23:18:25.935Z,84.80
2018-12-30T23:20:55.059Z,84.80
2018-12-30T23:23:24.124Z,84.80
2018-12-30T23:25:53.252Z,84.80
2018-12-30T23:28:22.322Z,84.70
2018-12-30T23:30:51.421Z,84.70
2018-12-30T23:33:21.774Z,84.50
2018-12-30T23:35:51.169Z,84.60
2018-12-30T23:38:20.342Z,84.50
2018-12-30T23:40:49.397Z,84.80
2018-12-30T23:43:18.466Z,84.50
2018-12-30T23:45:47.441Z,84.30
2018-12-30T23:48:16.849Z,84.20
2018-12-30T23:50:45.935Z,84.30
2018-12-30T23:53:14.914Z,84.30
2018-12-30T23:55:43.921Z,84.70
2018-12-30T23:58:13.590Z,84.10
